sensor_id;sensor_type;location;lat;lon;timestamp;P1;durP1;ratioP1;P2;durP2;ratioP2
72406;SDS011;60396;47.550;18.828;2022-10-24T00:01:25;28.58;;;15.10;;
72406;SDS011;60396;47.550;18.828;2022-10-24T00:03:53;30.20;;;15.95;;
72406;SDS011;60396;47.550;18.828;2022-10-24T00:06:20;34.27;;;15.83;;
72406;SDS011;60396;47.550;18.828;2022-10-24T00:08:48;33.13;;;16.08;;
72406;SDS011;60396;47.550;18.828;2022-10-24T00:11:23;32.75;;;17.15;;
72406;SDS011;60396;47.550;18.828;2022-10-24T00:13:53;30.83;;;16.55;;
72406;SDS011;60396;47.550;18.828;2022-10-24T00:16:22;33.33;;;18.50;;
72406;SDS011;60396;47.550;18.828;2022-10-24T00:18:50;37.80;;;18.23;;
72406;SDS011;60396;47.550;18.828;2022-10-24T00:21:17;32.55;;;17.50;;
72406;SDS011;60396;47.550;18.828;2022-10-24T00:23:45;36.30;;;17.55;;
72406;SDS011;60396;47.550;18.828;2022-10-24T00:26:13;31.95;;;16.83;;
72406;SDS011;60396;47.550;18.828;2022-10-24T00:28:42;35.53;;;17.60;;
72406;SDS011;60396;47.550;18.828;2022-10-24T00:31:14;33.37;;;16.73;;
72406;SDS011;60396;47.550;18.828;2022-10-24T00:33:42;33.28;;;16.70;;
72406;SDS011;60396;47.550;18.828;2022-10-24T00:36:14;35.97;;;17.85;;
72406;SDS011;60396;47.550;18.828;2022-10-24T00:38:45;38.45;;;18.48;;
72406;SDS011;60396;47.550;18.828;2022-10-24T00:41:17;35.45;;;17.27;;
72406;SDS011;60396;47.550;18.828;2022-10-24T00:43:47;38.93;;;20.03;;
72406;SDS011;60396;47.550;18.828;2022-10-24T00:46:15;34.80;;;17.55;;
72406;SDS011;60396;47.550;18.828;2022-10-24T00:48:51;38.75;;;17.85;;
72406;SDS011;60396;47.550;18.828;2022-10-24T00:53:59;37.85;;;18.42;;
72406;SDS011;60396;47.550;18.828;2022-10-24T00:56:30;38.80;;;18.63;;
72406;SDS011;60396;47.550;18.828;2022-10-24T00:59:00;49.92;;;19.48;;
72406;SDS011;60396;47.550;18.828;2022-10-24T01:01:29;39.55;;;18.42;;
72406;SDS011;60396;47.550;18.828;2022-10-24T01:03:57;41.40;;;18.60;;
72406;SDS011;60396;47.550;18.828;2022-10-24T01:06:31;37.55;;;17.60;;
72406;SDS011;60396;47.550;18.828;2022-10-24T01:09:23;38.20;;;18.73;;
72406;SDS011;60396;47.550;18.828;2022-10-24T01:20:13;41.47;;;18.80;;
72406;SDS011;60396;47.550;18.828;2022-10-24T01:25:58;37.15;;;17.08;;
72406;SDS011;60396;47.550;18.828;2022-10-24T01:32:01;36.20;;;17.05;;
72406;SDS011;60396;47.550;18.828;2022-10-24T01:34:42;38.50;;;16.98;;
72406;SDS011;60396;47.550;18.828;2022-10-24T01:37:15;43.03;;;17.27;;
72406;SDS011;60396;47.550;18.828;2022-10-24T01:39:47;41.45;;;18.30;;
72406;SDS011;60396;47.550;18.828;2022-10-24T01:42:16;43.17;;;18.58;;
72406;SDS011;60396;47.550;18.828;2022-10-24T01:44:47;37.17;;;17.65;;
72406;SDS011;60396;47.550;18.828;2022-10-24T01:47:18;39.60;;;18.20;;
72406;SDS011;60396;47.550;18.828;2022-10-24T01:49:51;37.23;;;18.03;;
72406;SDS011;60396;47.550;18.828;2022-10-24T01:52:21;39.78;;;18.73;;
72406;SDS011;60396;47.550;18.828;2022-10-24T01:54:49;35.97;;;17.15;;
72406;SDS011;60396;47.550;18.828;2022-10-24T01:57:18;38.25;;;18.37;;
72406;SDS011;60396;47.550;18.828;2022-10-24T01:59:46;35.65;;;17.77;;
72406;SDS011;60396;47.550;18.828;2022-10-24T02:02:22;35.90;;;16.67;;
72406;SDS011;60396;47.550;18.828;2022-10-24T02:05:33;37.30;;;17.37;;
72406;SDS011;60396;47.550;18.828;2022-10-24T02:07:54;36.10;;;16.40;;
72406;SDS011;60396;47.550;18.828;2022-10-24T02:10:28;35.45;;;16.95;;
72406;SDS011;60396;47.550;18.828;2022-10-24T02:13:00;33.97;;;16.50;;
72406;SDS011;60396;47.550;18.828;2022-10-24T02:15:33;32.27;;;16.40;;
72406;SDS011;60396;47.550;18.828;2022-10-24T02:18:04;32.05;;;15.82;;
72406;SDS011;60396;47.550;18.828;2022-10-24T02:20:34;33.83;;;16.45;;
72406;SDS011;60396;47.550;18.828;2022-10-24T02:23:26;34.15;;;15.85;;
72406;SDS011;60396;47.550;18.828;2022-10-24T02:26:01;33.20;;;15.82;;
72406;SDS011;60396;47.550;18.828;2022-10-24T02:28:32;31.67;;;16.13;;
72406;SDS011;60396;47.550;18.828;2022-10-24T02:31:06;27.60;;;14.73;;
72406;SDS011;60396;47.550;18.828;2022-10-24T02:33:37;31.87;;;14.98;;
72406;SDS011;60396;47.550;18.828;2022-10-24T02:36:07;30.92;;;14.55;;
72406;SDS011;60396;47.550;18.828;2022-10-24T02:38:38;32.70;;;15.73;;
72406;SDS011;60396;47.550;18.828;2022-10-24T02:41:10;34.23;;;16.03;;
72406;SDS011;60396;47.550;18.828;2022-10-24T02:43:39;31.70;;;15.75;;
72406;SDS011;60396;47.550;18.828;2022-10-24T02:46:08;33.15;;;15.52;;
72406;SDS011;60396;47.550;18.828;2022-10-24T02:48:37;32.85;;;16.48;;
72406;SDS011;60396;47.550;18.828;2022-10-24T02:51:08;31.65;;;15.57;;
72406;SDS011;60396;47.550;18.828;2022-10-24T02:53:35;32.00;;;16.27;;
72406;SDS011;60396;47.550;18.828;2022-10-24T02:56:03;33.42;;;16.80;;
72406;SDS011;60396;47.550;18.828;2022-10-24T02:58:31;33.40;;;16.58;;
72406;SDS011;60396;47.550;18.828;2022-10-24T03:00:58;28.65;;;15.32;;
72406;SDS011;60396;47.550;18.828;2022-10-24T03:03:26;32.90;;;16.15;;
72406;SDS011;60396;47.550;18.828;2022-10-24T03:05:54;32.23;;;16.17;;
72406;SDS011;60396;47.550;18.828;2022-10-24T03:08:21;32.75;;;16.05;;
72406;SDS011;60396;47.550;18.828;2022-10-24T03:10:49;30.60;;;15.65;;
72406;SDS011;60396;47.550;18.828;2022-10-24T03:13:17;34.38;;;16.80;;
72406;SDS011;60396;47.550;18.828;2022-10-24T03:15:44;32.00;;;16.45;;
72406;SDS011;60396;47.550;18.828;2022-10-24T03:18:17;34.50;;;16.97;;
72406;SDS011;60396;47.550;18.828;2022-10-24T03:20:44;35.08;;;16.15;;
72406;SDS011;60396;47.550;18.828;2022-10-24T03:23:12;35.80;;;16.77;;
72406;SDS011;60396;47.550;18.828;2022-10-24T03:25:40;40.12;;;16.80;;
72406;SDS011;60396;47.550;18.828;2022-10-24T03:28:07;37.15;;;16.87;;
72406;SDS011;60396;47.550;18.828;2022-10-24T03:30:35;32.13;;;15.40;;
72406;SDS011;60396;47.550;18.828;2022-10-24T03:33:03;30.77;;;16.30;;
72406;SDS011;60396;47.550;18.828;2022-10-24T03:35:30;33.95;;;16.45;;
72406;SDS011;60396;47.550;18.828;2022-10-24T03:37:57;30.80;;;15.20;;
72406;SDS011;60396;47.550;18.828;2022-10-24T03:40:25;31.75;;;16.75;;
72406;SDS011;60396;47.550;18.828;2022-10-24T03:42:52;32.00;;;15.73;;
72406;SDS011;60396;47.550;18.828;2022-10-24T03:45:20;30.80;;;15.82;;
72406;SDS011;60396;47.550;18.828;2022-10-24T03:47:48;31.73;;;15.38;;
72406;SDS011;60396;47.550;18.828;2022-10-24T03:50:15;37.08;;;15.18;;
72406;SDS011;60396;47.550;18.828;2022-10-24T03:52:43;32.28;;;15.85;;
72406;SDS011;60396;47.550;18.828;2022-10-24T03:55:11;30.40;;;14.47;;
72406;SDS011;60396;47.550;18.828;2022-10-24T03:57:39;32.53;;;15.20;;
72406;SDS011;60396;47.550;18.828;2022-10-24T04:00:07;32.38;;;14.87;;
72406;SDS011;60396;47.550;18.828;2022-10-24T04:02:35;35.30;;;16.45;;
72406;SDS011;60396;47.550;18.828;2022-10-24T04:05:06;31.12;;;15.20;;
72406;SDS011;60396;47.550;18.828;2022-10-24T04:07:34;33.43;;;15.97;;
72406;SDS011;60396;47.550;18.828;2022-10-24T04:10:09;28.30;;;14.82;;
72406;SDS011;60396;47.550;18.828;2022-10-24T04:12:36;31.95;;;15.88;;
72406;SDS011;60396;47.550;18.828;2022-10-24T04:15:04;33.67;;;15.50;;
72406;SDS011;60396;47.550;18.828;2022-10-24T04:17:32;30.40;;;15.27;;
72406;SDS011;60396;47.550;18.828;2022-10-24T04:19:59;26.47;;;14.73;;
72406;SDS011;60396;47.550;18.828;2022-10-24T04:22:27;25.52;;;13.20;;
72406;SDS011;60396;47.550;18.828;2022-10-24T04:24:55;27.58;;;12.80;;
72406;SDS011;60396;47.550;18.828;2022-10-24T04:27:22;27.80;;;13.15;;
72406;SDS011;60396;47.550;18.828;2022-10-24T04:29:50;27.48;;;12.93;;
72406;SDS011;60396;47.550;18.828;2022-10-24T04:32:17;26.00;;;13.23;;
72406;SDS011;60396;47.550;18.828;2022-10-24T04:34:45;25.92;;;13.20;;
72406;SDS011;60396;47.550;18.828;2022-10-24T04:37:12;27.75;;;13.85;;
72406;SDS011;60396;47.550;18.828;2022-10-24T04:39:40;28.35;;;13.90;;
72406;SDS011;60396;47.550;18.828;2022-10-24T04:42:07;25.52;;;14.10;;
72406;SDS011;60396;47.550;18.828;2022-10-24T04:44:35;32.70;;;14.93;;
72406;SDS011;60396;47.550;18.828;2022-10-24T04:47:02;30.65;;;14.18;;
72406;SDS011;60396;47.550;18.828;2022-10-24T04:49:30;27.62;;;13.85;;
72406;SDS011;60396;47.550;18.828;2022-10-24T04:51:58;28.33;;;14.15;;
72406;SDS011;60396;47.550;18.828;2022-10-24T04:54:25;28.48;;;15.00;;
72406;SDS011;60396;47.550;18.828;2022-10-24T04:56:53;27.10;;;14.27;;
72406;SDS011;60396;47.550;18.828;2022-10-24T04:59:21;30.12;;;14.77;;
72406;SDS011;60396;47.550;18.828;2022-10-24T05:01:48;27.87;;;13.62;;
72406;SDS011;60396;47.550;18.828;2022-10-24T05:04:16;31.27;;;13.77;;
72406;SDS011;60396;47.550;18.828;2022-10-24T05:06:44;26.60;;;14.25;;
72406;SDS011;60396;47.550;18.828;2022-10-24T05:09:12;29.13;;;14.43;;
72406;SDS011;60396;47.550;18.828;2022-10-24T05:11:40;28.15;;;14.15;;
72406;SDS011;60396;47.550;18.828;2022-10-24T05:14:08;30.85;;;14.57;;
72406;SDS011;60396;47.550;18.828;2022-10-24T05:16:35;27.20;;;14.90;;
72406;SDS011;60396;47.550;18.828;2022-10-24T05:19:03;25.25;;;13.23;;
72406;SDS011;60396;47.550;18.828;2022-10-24T05:21:31;26.40;;;13.37;;
72406;SDS011;60396;47.550;18.828;2022-10-24T05:23:59;26.87;;;14.18;;
72406;SDS011;60396;47.550;18.828;2022-10-24T05:26:27;25.55;;;13.80;;
72406;SDS011;60396;47.550;18.828;2022-10-24T05:28:55;23.05;;;12.00;;
72406;SDS011;60396;47.550;18.828;2022-10-24T05:31:23;22.27;;;12.63;;
72406;SDS011;60396;47.550;18.828;2022-10-24T05:33:50;25.00;;;13.13;;
72406;SDS011;60396;47.550;18.828;2022-10-24T05:36:18;25.83;;;12.93;;
72406;SDS011;60396;47.550;18.828;2022-10-24T05:38:46;28.62;;;12.98;;
72406;SDS011;60396;47.550;18.828;2022-10-24T05:41:14;30.45;;;13.85;;
72406;SDS011;60396;47.550;18.828;2022-10-24T05:43:41;27.27;;;13.35;;
72406;SDS011;60396;47.550;18.828;2022-10-24T05:46:09;26.53;;;13.90;;
72406;SDS011;60396;47.550;18.828;2022-10-24T05:48:36;30.80;;;14.02;;
72406;SDS011;60396;47.550;18.828;2022-10-24T05:51:04;26.50;;;13.98;;
72406;SDS011;60396;47.550;18.828;2022-10-24T05:53:35;26.70;;;14.02;;
72406;SDS011;60396;47.550;18.828;2022-10-24T05:56:02;27.65;;;14.90;;
72406;SDS011;60396;47.550;18.828;2022-10-24T05:58:31;30.90;;;16.00;;
72406;SDS011;60396;47.550;18.828;2022-10-24T06:00:59;32.65;;;16.27;;
72406;SDS011;60396;47.550;18.828;2022-10-24T06:03:27;35.97;;;16.50;;
72406;SDS011;60396;47.550;18.828;2022-10-24T06:05:55;34.33;;;17.35;;
72406;SDS011;60396;47.550;18.828;2022-10-24T06:08:22;33.72;;;16.25;;
72406;SDS011;60396;47.550;18.828;2022-10-24T06:10:50;31.43;;;15.83;;
72406;SDS011;60396;47.550;18.828;2022-10-24T06:13:18;32.63;;;16.87;;
72406;SDS011;60396;47.550;18.828;2022-10-24T06:15:45;32.85;;;17.52;;
72406;SDS011;60396;47.550;18.828;2022-10-24T06:18:13;35.38;;;17.10;;
72406;SDS011;60396;47.550;18.828;2022-10-24T06:20:41;35.45;;;17.75;;
72406;SDS011;60396;47.550;18.828;2022-10-24T06:23:08;35.90;;;16.93;;
72406;SDS011;60396;47.550;18.828;2022-10-24T06:25:36;30.80;;;16.50;;
72406;SDS011;60396;47.550;18.828;2022-10-24T06:28:06;34.63;;;16.85;;
72406;SDS011;60396;47.550;18.828;2022-10-24T06:30:39;29.05;;;15.13;;
72406;SDS011;60396;47.550;18.828;2022-10-24T06:33:07;32.60;;;15.50;;
72406;SDS011;60396;47.550;18.828;2022-10-24T06:35:35;28.47;;;14.50;;
72406;SDS011;60396;47.550;18.828;2022-10-24T06:38:02;27.55;;;14.50;;
72406;SDS011;60396;47.550;18.828;2022-10-24T06:40:30;26.15;;;14.80;;
72406;SDS011;60396;47.550;18.828;2022-10-24T06:42:57;28.15;;;15.57;;
72406;SDS011;60396;47.550;18.828;2022-10-24T06:45:25;35.90;;;16.65;;
72406;SDS011;60396;47.550;18.828;2022-10-24T06:47:53;30.43;;;16.03;;
72406;SDS011;60396;47.550;18.828;2022-10-24T06:50:21;36.60;;;18.08;;
72406;SDS011;60396;47.550;18.828;2022-10-24T07:08:01;37.03;;;18.98;;
72406;SDS011;60396;47.550;18.828;2022-10-24T07:10:29;34.70;;;17.73;;
72406;SDS011;60396;47.550;18.828;2022-10-24T07:38:43;34.03;;;17.92;;
72406;SDS011;60396;47.550;18.828;2022-10-24T07:41:11;33.10;;;15.43;;
72406;SDS011;60396;47.550;18.828;2022-10-24T07:43:39;29.95;;;13.65;;
72406;SDS011;60396;47.550;18.828;2022-10-24T07:46:11;33.58;;;15.50;;
72406;SDS011;60396;47.550;18.828;2022-10-24T07:48:40;30.05;;;14.63;;
72406;SDS011;60396;47.550;18.828;2022-10-24T07:51:10;30.95;;;15.30;;
72406;SDS011;60396;47.550;18.828;2022-10-24T07:53:39;32.03;;;16.90;;
72406;SDS011;60396;47.550;18.828;2022-10-24T07:56:07;33.00;;;16.02;;
72406;SDS011;60396;47.550;18.828;2022-10-24T07:58:39;28.95;;;13.90;;
72406;SDS011;60396;47.550;18.828;2022-10-24T08:01:08;26.25;;;14.13;;
72406;SDS011;60396;47.550;18.828;2022-10-24T08:03:37;29.33;;;13.07;;
72406;SDS011;60396;47.550;18.828;2022-10-24T08:06:09;27.40;;;13.37;;
72406;SDS011;60396;47.550;18.828;2022-10-24T08:08:39;25.75;;;13.15;;
72406;SDS011;60396;47.550;18.828;2022-10-24T08:11:08;29.37;;;13.45;;
72406;SDS011;60396;47.550;18.828;2022-10-24T08:13:36;26.55;;;12.48;;
72406;SDS011;60396;47.550;18.828;2022-10-24T08:16:05;28.20;;;12.93;;
72406;SDS011;60396;47.550;18.828;2022-10-24T08:18:36;24.40;;;11.60;;
72406;SDS011;60396;47.550;18.828;2022-10-24T08:21:07;23.48;;;11.63;;
72406;SDS011;60396;47.550;18.828;2022-10-24T08:23:37;26.48;;;12.52;;
72406;SDS011;60396;47.550;18.828;2022-10-24T08:26:06;25.30;;;12.63;;
72406;SDS011;60396;47.550;18.828;2022-10-24T08:28:35;32.83;;;15.55;;
72406;SDS011;60396;47.550;18.828;2022-10-24T08:31:04;38.83;;;16.27;;
72406;SDS011;60396;47.550;18.828;2022-10-24T08:33:33;32.25;;;15.52;;
72406;SDS011;60396;47.550;18.828;2022-10-24T08:36:05;31.27;;;15.55;;
72406;SDS011;60396;47.550;18.828;2022-10-24T08:38:43;32.83;;;15.57;;
72406;SDS011;60396;47.550;18.828;2022-10-24T08:41:45;37.13;;;17.05;;
72406;SDS011;60396;47.550;18.828;2022-10-24T08:44:15;33.13;;;15.30;;
72406;SDS011;60396;47.550;18.828;2022-10-24T08:46:50;33.90;;;15.55;;
72406;SDS011;60396;47.550;18.828;2022-10-24T08:52:18;36.25;;;16.48;;
72406;SDS011;60396;47.550;18.828;2022-10-24T08:54:51;34.47;;;15.90;;
72406;SDS011;60396;47.550;18.828;2022-10-24T08:57:24;31.20;;;16.30;;
72406;SDS011;60396;47.550;18.828;2022-10-24T08:59:55;37.35;;;17.50;;
72406;SDS011;60396;47.550;18.828;2022-10-24T09:02:26;35.10;;;16.37;;
72406;SDS011;60396;47.550;18.828;2022-10-24T09:07:43;32.45;;;14.05;;
72406;SDS011;60396;47.550;18.828;2022-10-24T09:10:25;28.17;;;13.67;;
72406;SDS011;60396;47.550;18.828;2022-10-24T09:12:58;30.50;;;14.98;;
72406;SDS011;60396;47.550;18.828;2022-10-24T09:15:28;27.15;;;13.52;;
72406;SDS011;60396;47.550;18.828;2022-10-24T09:17:56;28.83;;;14.10;;
72406;SDS011;60396;47.550;18.828;2022-10-24T09:20:26;29.30;;;12.90;;
72406;SDS011;60396;47.550;18.828;2022-10-24T09:22:57;30.47;;;12.57;;
72406;SDS011;60396;47.550;18.828;2022-10-24T09:25:27;24.83;;;12.75;;
72406;SDS011;60396;47.550;18.828;2022-10-24T09:27:57;32.88;;;13.30;;
72406;SDS011;60396;47.550;18.828;2022-10-24T09:30:25;27.02;;;13.73;;
72406;SDS011;60396;47.550;18.828;2022-10-24T09:33:02;26.12;;;13.90;;
72406;SDS011;60396;47.550;18.828;2022-10-24T09:35:39;28.13;;;13.30;;
72406;SDS011;60396;47.550;18.828;2022-10-24T09:40:55;30.12;;;13.55;;
72406;SDS011;60396;47.550;18.828;2022-10-24T09:46:23;30.85;;;14.10;;
72406;SDS011;60396;47.550;18.828;2022-10-24T09:56:35;25.50;;;12.45;;
72406;SDS011;60396;47.550;18.828;2022-10-24T09:59:17;29.35;;;13.27;;
72406;SDS011;60396;47.550;18.828;2022-10-24T10:02:13;23.67;;;12.73;;
72406;SDS011;60396;47.550;18.828;2022-10-24T10:04:46;24.90;;;12.60;;
72406;SDS011;60396;47.550;18.828;2022-10-24T10:07:17;25.30;;;13.25;;
72406;SDS011;60396;47.550;18.828;2022-10-24T10:09:53;25.23;;;11.63;;
72406;SDS011;60396;47.550;18.828;2022-10-24T10:12:33;24.63;;;12.55;;
72406;SDS011;60396;47.550;18.828;2022-10-24T10:15:50;25.40;;;12.00;;
72406;SDS011;60396;47.550;18.828;2022-10-24T10:18:19;26.35;;;12.10;;
72406;SDS011;60396;47.550;18.828;2022-10-24T10:23:42;22.25;;;11.60;;
72406;SDS011;60396;47.550;18.828;2022-10-24T10:26:17;19.75;;;10.77;;
72406;SDS011;60396;47.550;18.828;2022-10-24T10:31:43;21.58;;;11.18;;
72406;SDS011;60396;47.550;18.828;2022-10-24T10:34:11;21.73;;;11.20;;
72406;SDS011;60396;47.550;18.828;2022-10-24T10:42:34;19.87;;;9.70;;
72406;SDS011;60396;47.550;18.828;2022-10-24T10:48:17;17.83;;;9.20;;
72406;SDS011;60396;47.550;18.828;2022-10-24T10:51:16;19.73;;;9.20;;
72406;SDS011;60396;47.550;18.828;2022-10-24T10:56:51;21.70;;;11.17;;
72406;SDS011;60396;47.550;18.828;2022-10-24T11:10:50;20.60;;;10.80;;
72406;SDS011;60396;47.550;18.828;2022-10-24T11:13:22;25.35;;;11.23;;
72406;SDS011;60396;47.550;18.828;2022-10-24T11:15:59;22.27;;;10.98;;
72406;SDS011;60396;47.550;18.828;2022-10-24T11:18:34;26.27;;;11.10;;
72406;SDS011;60396;47.550;18.828;2022-10-24T11:21:06;24.95;;;11.35;;
72406;SDS011;60396;47.550;18.828;2022-10-24T11:23:54;21.83;;;11.53;;
72406;SDS011;60396;47.550;18.828;2022-10-24T11:26:45;24.77;;;11.60;;
72406;SDS011;60396;47.550;18.828;2022-10-24T11:29:19;20.23;;;11.35;;
72406;SDS011;60396;47.550;18.828;2022-10-24T11:31:58;24.00;;;12.10;;
72406;SDS011;60396;47.550;18.828;2022-10-24T11:34:48;21.37;;;11.00;;
72406;SDS011;60396;47.550;18.828;2022-10-24T11:37:32;24.47;;;11.13;;
72406;SDS011;60396;47.550;18.828;2022-10-24T11:40:06;20.83;;;10.60;;
72406;SDS011;60396;47.550;18.828;2022-10-24T11:45:09;27.62;;;11.45;;
72406;SDS011;60396;47.550;18.828;2022-10-24T11:52:57;24.33;;;11.40;;
72406;SDS011;60396;47.550;18.828;2022-10-24T11:55:31;20.77;;;10.60;;
72406;SDS011;60396;47.550;18.828;2022-10-24T11:58:07;28.27;;;11.40;;
72406;SDS011;60396;47.550;18.828;2022-10-24T12:03:53;29.60;;;13.10;;
72406;SDS011;60396;47.550;18.828;2022-10-24T12:21:07;27.35;;;14.73;;
72406;SDS011;60396;47.550;18.828;2022-10-24T12:23:36;32.38;;;16.10;;
72406;SDS011;60396;47.550;18.828;2022-10-24T12:28:40;29.73;;;14.00;;
72406;SDS011;60396;47.550;18.828;2022-10-24T12:33:41;41.35;;;15.93;;
72406;SDS011;60396;47.550;18.828;2022-10-24T12:36:10;41.37;;;16.80;;
72406;SDS011;60396;47.550;18.828;2022-10-24T12:41:06;31.25;;;15.25;;
72406;SDS011;60396;47.550;18.828;2022-10-24T12:44:22;37.10;;;16.00;;
72406;SDS011;60396;47.550;18.828;2022-10-24T12:46:51;41.30;;;18.73;;
72406;SDS011;60396;47.550;18.828;2022-10-24T12:49:24;40.00;;;17.33;;
72406;SDS011;60396;47.550;18.828;2022-10-24T12:51:56;34.85;;;16.30;;
72406;SDS011;60396;47.550;18.828;2022-10-24T12:54:38;35.38;;;16.30;;
72406;SDS011;60396;47.550;18.828;2022-10-24T12:59:46;35.50;;;15.50;;
72406;SDS011;60396;47.550;18.828;2022-10-24T13:21:06;47.65;;;19.62;;
72406;SDS011;60396;47.550;18.828;2022-10-24T13:23:42;50.10;;;19.80;;
72406;SDS011;60396;47.550;18.828;2022-10-24T13:29:00;44.13;;;19.75;;
72406;SDS011;60396;47.550;18.828;2022-10-24T13:37:00;48.00;;;20.03;;
72406;SDS011;60396;47.550;18.828;2022-10-24T13:39:31;42.42;;;18.65;;
72406;SDS011;60396;47.550;18.828;2022-10-24T13:42:10;49.35;;;20.05;;
72406;SDS011;60396;47.550;18.828;2022-10-24T13:44:44;42.28;;;18.83;;
72406;SDS011;60396;47.550;18.828;2022-10-24T13:47:19;46.42;;;19.52;;
72406;SDS011;60396;47.550;18.828;2022-10-24T13:50:06;48.23;;;19.30;;
72406;SDS011;60396;47.550;18.828;2022-10-24T13:52:42;47.13;;;18.73;;
72406;SDS011;60396;47.550;18.828;2022-10-24T13:55:37;45.65;;;18.65;;
72406;SDS011;60396;47.550;18.828;2022-10-24T14:00:32;47.60;;;19.33;;
72406;SDS011;60396;47.550;18.828;2022-10-24T14:03:03;46.17;;;18.80;;
72406;SDS011;60396;47.550;18.828;2022-10-24T14:05:32;49.40;;;20.80;;
72406;SDS011;60396;47.550;18.828;2022-10-24T14:08:02;63.00;;;22.05;;
72406;SDS011;60396;47.550;18.828;2022-10-24T14:10:30;53.03;;;21.42;;
72406;SDS011;60396;47.550;18.828;2022-10-24T14:12:58;42.25;;;18.17;;
72406;SDS011;60396;47.550;18.828;2022-10-24T14:15:27;43.13;;;17.97;;
72406;SDS011;60396;47.550;18.828;2022-10-24T14:17:57;42.85;;;17.70;;
72406;SDS011;60396;47.550;18.828;2022-10-24T14:20:31;38.70;;;17.95;;
72406;SDS011;60396;47.550;18.828;2022-10-24T14:25:56;45.63;;;18.83;;
72406;SDS011;60396;47.550;18.828;2022-10-24T14:28:27;44.87;;;19.93;;
72406;SDS011;60396;47.550;18.828;2022-10-24T14:30:59;47.08;;;19.85;;
72406;SDS011;60396;47.550;18.828;2022-10-24T14:33:28;60.22;;;19.60;;
72406;SDS011;60396;47.550;18.828;2022-10-24T14:35:58;48.92;;;19.20;;
72406;SDS011;60396;47.550;18.828;2022-10-24T14:38:26;47.55;;;19.45;;
72406;SDS011;60396;47.550;18.828;2022-10-24T14:40:55;44.37;;;18.67;;
72406;SDS011;60396;47.550;18.828;2022-10-24T14:43:36;46.97;;;18.85;;
72406;SDS011;60396;47.550;18.828;2022-10-24T14:48:35;53.92;;;20.77;;
72406;SDS011;60396;47.550;18.828;2022-10-24T14:51:04;48.50;;;21.25;;
72406;SDS011;60396;47.550;18.828;2022-10-24T14:53:36;56.43;;;23.80;;
72406;SDS011;60396;47.550;18.828;2022-10-24T14:59:03;35.33;;;13.82;;
72406;SDS011;60396;47.550;18.828;2022-10-24T15:01:32;32.30;;;14.05;;
72406;SDS011;60396;47.550;18.828;2022-10-24T15:04:01;35.65;;;15.35;;
72406;SDS011;60396;47.550;18.828;2022-10-24T15:06:37;44.57;;;17.57;;
72406;SDS011;60396;47.550;18.828;2022-10-24T15:11:38;48.42;;;19.65;;
72406;SDS011;60396;47.550;18.828;2022-10-24T15:14:50;54.03;;;19.70;;
72406;SDS011;60396;47.550;18.828;2022-10-24T15:19:44;48.17;;;19.87;;
72406;SDS011;60396;47.550;18.828;2022-10-24T15:22:35;50.25;;;20.23;;
72406;SDS011;60396;47.550;18.828;2022-10-24T15:25:06;49.95;;;21.73;;
72406;SDS011;60396;47.550;18.828;2022-10-24T15:27:42;61.15;;;20.52;;
72406;SDS011;60396;47.550;18.828;2022-10-24T15:30:16;51.17;;;19.80;;
72406;SDS011;60396;47.550;18.828;2022-10-24T15:32:45;51.13;;;20.53;;
72406;SDS011;60396;47.550;18.828;2022-10-24T15:35:14;41.45;;;18.77;;
72406;SDS011;60396;47.550;18.828;2022-10-24T15:37:55;47.28;;;20.00;;
72406;SDS011;60396;47.550;18.828;2022-10-24T15:40:26;46.40;;;18.35;;
72406;SDS011;60396;47.550;18.828;2022-10-24T15:42:56;41.72;;;18.52;;
72406;SDS011;60396;47.550;18.828;2022-10-24T15:45:24;47.43;;;19.70;;
72406;SDS011;60396;47.550;18.828;2022-10-24T15:47:52;49.30;;;20.40;;
72406;SDS011;60396;47.550;18.828;2022-10-24T15:50:22;46.65;;;20.85;;
72406;SDS011;60396;47.550;18.828;2022-10-24T15:52:52;51.20;;;21.33;;
72406;SDS011;60396;47.550;18.828;2022-10-24T15:55:22;49.85;;;22.25;;
72406;SDS011;60396;47.550;18.828;2022-10-24T15:57:52;53.67;;;21.23;;
72406;SDS011;60396;47.550;18.828;2022-10-24T16:00:20;54.45;;;22.05;;
72406;SDS011;60396;47.550;18.828;2022-10-24T16:02:49;50.08;;;22.92;;
72406;SDS011;60396;47.550;18.828;2022-10-24T16:05:18;50.70;;;21.60;;
72406;SDS011;60396;47.550;18.828;2022-10-24T16:07:49;45.60;;;21.00;;
72406;SDS011;60396;47.550;18.828;2022-10-24T16:10:19;41.03;;;20.07;;
72406;SDS011;60396;47.550;18.828;2022-10-24T16:12:48;45.70;;;20.75;;
72406;SDS011;60396;47.550;18.828;2022-10-24T16:15:21;50.65;;;22.13;;
72406;SDS011;60396;47.550;18.828;2022-10-24T16:17:51;50.47;;;21.02;;
72406;SDS011;60396;47.550;18.828;2022-10-24T16:20:19;49.03;;;20.85;;
72406;SDS011;60396;47.550;18.828;2022-10-24T16:22:47;46.43;;;20.83;;
72406;SDS011;60396;47.550;18.828;2022-10-24T16:25:17;46.60;;;19.75;;
72406;SDS011;60396;47.550;18.828;2022-10-24T16:27:50;52.08;;;20.17;;
72406;SDS011;60396;47.550;18.828;2022-10-24T16:30:18;40.35;;;18.35;;
72406;SDS011;60396;47.550;18.828;2022-10-24T16:32:47;41.40;;;18.70;;
72406;SDS011;60396;47.550;18.828;2022-10-24T16:35:21;43.80;;;18.90;;
72406;SDS011;60396;47.550;18.828;2022-10-24T16:37:52;39.08;;;17.80;;
72406;SDS011;60396;47.550;18.828;2022-10-24T16:40:22;44.97;;;18.42;;
72406;SDS011;60396;47.550;18.828;2022-10-24T16:42:53;40.40;;;17.55;;
72406;SDS011;60396;47.550;18.828;2022-10-24T16:45:23;40.67;;;17.20;;
72406;SDS011;60396;47.550;18.828;2022-10-24T16:47:51;34.00;;;15.13;;
72406;SDS011;60396;47.550;18.828;2022-10-24T16:50:20;33.75;;;14.90;;
72406;SDS011;60396;47.550;18.828;2022-10-24T16:52:57;41.78;;;16.52;;
72406;SDS011;60396;47.550;18.828;2022-10-24T16:55:30;35.20;;;14.32;;
72406;SDS011;60396;47.550;18.828;2022-10-24T16:57:58;32.92;;;14.10;;
72406;SDS011;60396;47.550;18.828;2022-10-24T17:00:27;29.27;;;12.80;;
72406;SDS011;60396;47.550;18.828;2022-10-24T17:02:57;31.77;;;14.52;;
72406;SDS011;60396;47.550;18.828;2022-10-24T17:05:26;33.40;;;14.38;;
72406;SDS011;60396;47.550;18.828;2022-10-24T17:07:54;33.35;;;14.10;;
72406;SDS011;60396;47.550;18.828;2022-10-24T17:10:22;36.13;;;16.23;;
72406;SDS011;60396;47.550;18.828;2022-10-24T17:12:51;33.77;;;15.13;;
72406;SDS011;60396;47.550;18.828;2022-10-24T17:15:20;33.45;;;14.20;;
72406;SDS011;60396;47.550;18.828;2022-10-24T17:17:50;32.50;;;13.43;;
72406;SDS011;60396;47.550;18.828;2022-10-24T17:20:18;31.70;;;13.95;;
72406;SDS011;60396;47.550;18.828;2022-10-24T17:22:46;38.28;;;14.73;;
72406;SDS011;60396;47.550;18.828;2022-10-24T17:25:21;34.50;;;14.50;;
72406;SDS011;60396;47.550;18.828;2022-10-24T17:27:51;31.45;;;14.82;;
72406;SDS011;60396;47.550;18.828;2022-10-24T17:30:23;31.27;;;13.60;;
72406;SDS011;60396;47.550;18.828;2022-10-24T17:32:53;30.50;;;13.18;;
72406;SDS011;60396;47.550;18.828;2022-10-24T17:35:22;27.85;;;13.55;;
72406;SDS011;60396;47.550;18.828;2022-10-24T17:40:56;30.35;;;13.15;;